Time;durP1;ratioP1;P1;durP2;ratioP2;P2;SDS_P1;SDS_P2;PMS_P1;PMS_P2;Temp;Humidity;BMP_temperature;BMP_pressure;BME280_temperature;BME280_humidity;BME280_pressure;Samples;Min_cycle;Max_cycle;Signal;HPM_P1;HPM_P2
2023/03/22 12:40:32;;;;;;;14.13;6.95;;;;;;;;;;5016205;27;20437;-58
2023/03/22 12:43:02;;;;;;;15.88;7.93;;;;;;;;;;5012178;28;20037;-60
2023/03/22 12:45:31;;;;;;;24.33;9.40;;;;;;;;;;5012135;28;20045;-60
2023/03/22 12:48:05;;;;;;;13.40;6.95;;;;;;;;;;5015861;28;20052;-59
2023/03/22 12:50:38;;;;;;;27.73;9.32;;;;;;;;;;5021072;28;20041;-59
2023/03/22 12:53:05;;;;;;;14.10;7.95;;;;;;;;;;5009726;28;21128;-58
2023/03/22 12:55:34;;;;;;;20.15;8.55;;;;;;;;;;5011222;28;20042;-60
2023/03/22 12:58:00;;;;;;;18.10;8.77;;;;;;;;;;5010691;28;20042;-63
2023/03/22 13:00:27;;;;;;;17.50;8.88;;;;;;;;;;5011134;28;20038;-60
2023/03/22 13:03:00;;;;;;;16.95;7.05;;;;;;;;;;5012102;28;20139;-59
2023/03/22 13:05:27;;;;;;;;;;;;;;;;;;5012452;28;20038;-59
2023/03/22 13:07:57;;;;;;;26.63;8.75;;;;;;;;;;5012164;28;19971;-57
2023/03/22 13:10:35;;;;;;;15.88;6.53;;;;;;;;;;5011277;28;21839;-59
2023/03/22 13:13:20;;;;;;;19.73;9.18;;;;;;;;;;5012554;28;20501;-57
2023/03/22 13:15:57;;;;;;;18.48;7.53;;;;;;;;;;5019654;28;20487;-58
2023/03/22 13:18:31;;;;;;;18.15;8.27;;;;;;;;;;5009663;28;20049;-56
2023/03/22 13:21:18;;;;;;;28.08;8.88;;;;;;;;;;5011773;28;20069;-58
2023/03/22 13:24:03;;;;;;;19.30;9.10;;;;;;;;;;5012098;28;20500;-60
2023/03/22 13:26:30;;;;;;;20.98;7.50;;;;;;;;;;5010559;28;20350;-59
2023/03/22 13:28:58;;;;;;;13.95;6.32;;;;;;;;;;5012529;28;20033;-59
2023/03/22 13:31:37;;;;;;;18.63;7.85;;;;;;;;;;5010567;28;20112;-63
2023/03/22 13:34:04;;;;;;;18.67;8.65;;;;;;;;;;5010621;28;20033;-62
2023/03/22 13:36:31;;;;;;;21.48;8.38;;;;;;;;;;5010416;28;20616;-63
2023/03/22 13:39:02;;;;;;;17.92;7.55;;;;;;;;;;5012231;28;20526;-62
2023/03/22 13:41:31;;;;;;;17.88;8.00;;;;;;;;;;5011175;28;20104;-60
2023/03/22 13:43:58;;;;;;;18.23;8.05;;;;;;;;;;5010780;28;20038;-60
2023/03/22 13:46:25;;;;;;;14.95;7.47;;;;;;;;;;5009521;28;20103;-61
2023/03/22 13:49:12;;;;;;;16.33;7.78;;;;;;;;;;5010623;28;20034;-61
2023/03/22 13:51:39;;;;;;;30.92;7.97;;;;;;;;;;4998958;28;20049;-63
2023/03/22 13:54:12;;;;;;;28.50;9.15;;;;;;;;;;5005964;28;20041;-62
2023/03/22 13:56:45;;;;;;;21.60;7.60;;;;;;;;;;4996219;28;20686;-58
2023/03/22 13:59:11;;;;;;;;;;;;;;;;;;4998035;28;21083;-60
2023/03/22 14:01:50;;;;;;;13.77;6.00;;;;;;;;;;4997560;28;19963;-60
2023/03/22 14:04:28;;;;;;;12.00;6.85;;;;;;;;;;4997579;28;20056;-59
2023/03/22 14:07:13;;;;;;;22.27;7.03;;;;;;;;;;5002295;28;20038;-59
2023/03/22 14:09:45;;;;;;;16.63;7.25;;;;;;;;;;4997154;28;20041;-59
2023/03/22 14:12:24;;;;;;;23.10;7.47;;;;;;;;;;4996884;28;20038;-58
2023/03/22 14:14:57;;;;;;;17.50;8.10;;;;;;;;;;5002280;28;20100;-57
2023/03/22 14:17:43;;;;;;;18.60;7.47;;;;;;;;;;5003496;28;20041;-59
2023/03/22 14:20:15;;;;;;;25.92;6.85;;;;;;;;;;4997462;28;20064;-60
2023/03/22 14:22:46;;;;;;;19.38;8.07;;;;;;;;;;4996999;28;20074;-59
2023/03/22 14:25:16;;;;;;;16.05;7.55;;;;;;;;;;4997428;28;20069;-62
2023/03/22 14:27:43;;;;;;;32.45;7.53;;;;;;;;;;4996501;28;20054;-58
2023/03/22 14:30:19;;;;;;;20.65;7.57;;;;;;;;;;5003913;28;20063;-58
2023/03/22 14:32:48;;;;;;;16.00;7.72;;;;;;;;;;4996090;28;20888;-60
2023/03/22 14:35:33;;;;;;;24.55;7.28;;;;;;;;;;4996687;28;20524;-59
2023/03/22 14:38:06;;;;;;;20.02;7.13;;;;;;;;;;5001786;28;20066;-61
2023/03/22 14:40:34;;;;;;;19.02;6.57;;;;;;;;;;4996115;28;20050;-59
2023/03/22 14:43:19;;;;;;;20.85;6.70;;;;;;;;;;5003764;28;20131;-54
2023/03/22 14:45:46;;;;;;;20.50;6.55;;;;;;;;;;5003519;28;20049;-58
2023/03/22 14:48:16;;;;;;;21.65;6.65;;;;;;;;;;4995591;28;20038;-57
2023/03/22 14:50:51;;;;;;;17.35;6.85;;;;;;;;;;5003382;28;20046;-59
2023/03/22 14:53:19;;;;;;;19.45;6.65;;;;;;;;;;4995666;28;20038;-59
2023/03/22 14:55:49;;;;;;;30.73;7.68;;;;;;;;;;5003809;28;20049;-58
2023/03/22 14:58:17;;;;;;;24.08;6.28;;;;;;;;;;4994877;28;20038;-59
2023/03/22 15:00:44;;;;;;;23.35;7.00;;;;;;;;;;4995733;28;20116;-58
2023/03/22 15:03:18;;;;;;;30.15;7.45;;;;;;;;;;4994691;28;20054;-58
2023/03/22 15:05:45;;;;;;;24.98;6.32;;;;;;;;;;4985286;28;20083;-59
2023/03/22 15:08:20;;;;;;;28.75;7.68;;;;;;;;;;4994765;28;20200;-58
2023/03/22 15:10:58;;;;;;;29.27;7.22;;;;;;;;;;4995678;28;20041;-59
2023/03/22 15:13:28;;;;;;;22.27;7.00;;;;;;;;;;4995674;28;20084;-60
2023/03/22 15:15:55;;;;;;;38.22;6.53;;;;;;;;;;5010376;28;20033;-60
2023/03/22 15:18:22;;;;;;;29.30;7.70;;;;;;;;;;4998622;28;20572;-58
2023/03/22 15:20:50;;;;;;;31.83;6.20;;;;;;;;;;5003455;28;20116;-60
2023/03/22 15:23:19;;;;;;;28.88;7.82;;;;;;;;;;4996144;28;20143;-60
2023/03/22 15:25:50;;;;;;;26.42;7.35;;;;;;;;;;5001064;28;20107;-59
2023/03/22 15:28:20;;;;;;;24.45;5.47;;;;;;;;;;4992401;28;20049;-60
2023/03/22 15:30:48;;;;;;;18.52;5.38;;;;;;;;;;4998546;28;20042;-60
2023/03/22 15:33:35;;;;;;;24.27;4.88;;;;;;;;;;4999812;28;20129;-60
2023/03/22 15:36:03;;;;;;;21.52;5.95;;;;;;;;;;5000158;28;20046;-62
2023/03/22 15:38:35;;;;;;;20.98;5.72;;;;;;;;;;4993338;28;20046;-60
2023/03/22 15:41:03;;;;;;;26.92;6.00;;;;;;;;;;4995697;28;20061;-59
2023/03/22 15:43:39;;;;;;;26.35;7.13;;;;;;;;;;4993042;28;20042;-61
2023/03/22 15:46:17;;;;;;;22.70;6.35;;;;;;;;;;4994684;28;20579;-62
2023/03/22 15:48:55;;;;;;;23.23;5.40;;;;;;;;;;4992807;28;20037;-62
2023/03/22 15:51:23;;;;;;;14.90;4.35;;;;;;;;;;4993940;28;20131;-59
2023/03/22 15:53:50;;;;;;;20.77;4.70;;;;;;;;;;4995712;28;20077;-61
2023/03/22 15:56:34;;;;;;;19.20;4.85;;;;;;;;;;4995121;28;20038;-61
2023/03/22 15:59:01;;;;;;;19.92;4.82;;;;;;;;;;4997310;28;20060;-60
2023/03/22 16:01:34;;;;;;;23.27;5.43;;;;;;;;;;4994163;28;20052;-62
2023/03/22 16:04:10;;;;;;;19.30;5.03;;;;;;;;;;4994427;28;20033;-61
2023/03/22 16:06:37;;;;;;;23.10;4.72;;;;;;;;;;4994199;28;20534;-60
2023/03/22 16:09:04;;;;;;;19.73;4.38;;;;;;;;;;4993881;28;20062;-61
2023/03/22 16:11:30;;;;;;;21.77;4.60;;;;;;;;;;4994580;28;20132;-59
2023/03/22 16:13:57;;;;;;;23.45;4.35;;;;;;;;;;4994342;28;20040;-59
2023/03/22 16:16:25;;;;;;;22.83;4.95;;;;;;;;;;4993034;28;20122;-61
2023/03/22 16:18:52;;;;;;;24.15;4.22;;;;;;;;;;4994627;28;20051;-59
2023/03/22 16:21:20;;;;;;;19.42;3.70;;;;;;;;;;4993638;28;20057;-62
2023/03/22 16:23:46;;;;;;;17.05;4.10;;;;;;;;;;4995747;28;20046;-60
2023/03/22 16:26:17;;;;;;;31.98;3.85;;;;;;;;;;4994538;28;20119;-62
2023/03/22 16:28:44;;;;;;;13.57;4.10;;;;;;;;;;5002003;28;20141;-60
2023/03/22 16:31:15;;;;;;;16.65;3.38;;;;;;;;;;4994478;28;20038;-60
2023/03/22 16:33:42;;;;;;;21.08;4.00;;;;;;;;;;4995132;28;20042;-59
2023/03/22 16:36:13;;;;;;;15.88;3.38;;;;;;;;;;5011065;28;20049;-60
2023/03/22 16:38:39;;;;;;;20.10;3.60;;;;;;;;;;4994173;28;20104;-60
2023/03/22 16:41:07;;;;;;;17.67;3.35;;;;;;;;;;4993502;28;20042;-59
2023/03/22 16:43:35;;;;;;;12.23;2.72;;;;;;;;;;4994664;28;20053;-58
2023/03/22 16:46:01;;;;;;;10.02;2.67;;;;;;;;;;4994313;28;20830;-62
2023/03/22 16:48:28;;;;;;;18.77;3.03;;;;;;;;;;4991385;28;20034;-59
2023/03/22 16:50:55;;;;;;;9.38;2.88;;;;;;;;;;4993830;28;20129;-62
2023/03/22 16:53:21;;;;;;;10.35;3.00;;;;;;;;;;4993798;28;20141;-59
2023/03/22 16:55:48;;;;;;;16.75;2.70;;;;;;;;;;4993769;28;20042;-58
2023/03/22 16:58:16;;;;;;;5.95;2.08;;;;;;;;;;4994288;28;20830;-59
2023/03/22 17:00:43;;;;;;;8.63;2.40;;;;;;;;;;5003315;28;20049;-59
2023/03/22 17:03:12;;;;;;;9.00;2.63;;;;;;;;;;4994685;28;20143;-60
2023/03/22 17:05:39;;;;;;;9.13;2.03;;;;;;;;;;4993594;28;20042;-60
2023/03/22 17:08:11;;;;;;;10.95;2.53;;;;;;;;;;4994212;28;20038;-60
2023/03/22 17:10:38;;;;;;;15.52;2.40;;;;;;;;;;4994665;28;20220;-61
2023/03/22 17:13:05;;;;;;;8.57;2.13;;;;;;;;;;4994052;28;20033;-60
2023/03/22 17:15:40;;;;;;;7.03;2.10;;;;;;;;;;4993513;28;20132;-59
2023/03/22 17:18:11;;;;;;;10.27;2.30;;;;;;;;;;4993059;28;20571;-61
2023/03/22 17:20:38;;;;;;;15.65;2.53;;;;;;;;;;4993094;28;20137;-60
2023/03/22 17:23:06;;;;;;;13.55;2.10;;;;;;;;;;4994461;28;20042;-59
2023/03/22 17:25:35;;;;;;;9.00;1.92;;;;;;;;;;4994604;28;20371;-59
2023/03/22 17:28:02;;;;;;;6.82;2.22;;;;;;;;;;4997814;28;20045;-60
2023/03/22 17:30:29;;;;;;;15.20;2.45;;;;;;;;;;4997860;28;20064;-58
2023/03/22 17:32:57;;;;;;;8.55;2.13;;;;;;;;;;4998000;28;20034;-60
2023/03/22 17:35:24;;;;;;;5.40;1.55;;;;;;;;;;4996920;28;20046;-60
2023/03/22 17:37:51;;;;;;;9.48;2.28;;;;;;;;;;4998910;28;20041;-61
2023/03/22 17:40:18;;;;;;;7.70;2.00;;;;;;;;;;4997151;28;20532;-58
2023/03/22 17:42:45;;;;;;;12.70;1.88;;;;;;;;;;5005064;28;20514;-59
2023/03/22 17:45:22;;;;;;;6.25;1.65;;;;;;;;;;5004485;28;20536;-58
2023/03/22 17:47:49;;;;;;;15.90;2.00;;;;;;;;;;5003833;28;20121;-59
2023/03/22 17:50:17;;;;;;;6.07;1.90;;;;;;;;;;4997261;28;20070;-59
2023/03/22 17:52:44;;;;;;;8.23;2.15;;;;;;;;;;4997665;28;20069;-59
2023/03/22 17:55:18;;;;;;;13.35;2.22;;;;;;;;;;5006113;28;20135;-59
2023/03/22 17:57:45;;;;;;;7.18;1.98;;;;;;;;;;4995956;28;20043;-57
2023/03/22 18:00:12;;;;;;;8.82;1.65;;;;;;;;;;4997162;28;20422;-60
2023/03/22 18:02:39;;;;;;;6.15;1.50;;;;;;;;;;4996449;28;20041;-59
2023/03/22 18:05:06;;;;;;;12.60;2.08;;;;;;;;;;4996713;28;20411;-59
2023/03/22 18:07:33;;;;;;;11.50;1.63;;;;;;;;;;4995921;28;20038;-61
2023/03/22 18:09:59;;;;;;;6.43;1.70;;;;;;;;;;4997035;28;20060;-61
2023/03/22 18:12:26;;;;;;;12.65;1.90;;;;;;;;;;4996757;28;20049;-59
2023/03/22 18:14:53;;;;;;;7.18;1.70;;;;;;;;;;4996424;28;20125;-62
2023/03/22 18:17:19;;;;;;;7.30;1.85;;;;;;;;;;4996194;28;20045;-62
2023/03/22 18:19:46;;;;;;;6.38;1.70;;;;;;;;;;4996603;28;20117;-59
2023/03/22 18:22:13;;;;;;;8.77;1.85;;;;;;;;;;4996192;28;20093;-61
2023/03/22 18:24:40;;;;;;;12.60;1.95;;;;;;;;;;4995973;28;20047;-62
2023/03/22 18:27:06;;;;;;;17.10;2.00;;;;;;;;;;4996696;28;20053;-60
2023/03/22 18:29:33;;;;;;;13.35;2.15;;;;;;;;;;4995791;28;20469;-62
2023/03/22 18:31:59;;;;;;;12.15;2.30;;;;;;;;;;4997352;28;20040;-61
2023/03/22 18:34:26;;;;;;;7.30;1.60;;;;;;;;;;4995897;28;20054;-60
2023/03/22 18:36:53;;;;;;;10.25;1.90;;;;;;;;;;4996508;28;20049;-61
2023/03/22 18:39:19;;;;;;;14.13;1.77;;;;;;;;;;4996321;28;20060;-60
2023/03/22 18:41:46;;;;;;;10.90;1.90;;;;;;;;;;4996254;28;20045;-60
2023/03/22 18:44:13;;;;;;;8.10;1.60;;;;;;;;;;4996473;28;20050;-63
2023/03/22 18:46:40;;;;;;;11.27;1.40;;;;;;;;;;4995030;28;20092;-61
2023/03/22 18:49:06;;;;;;;5.32;1.80;;;;;;;;;;4996318;28;20674;-59
2023/03/22 18:51:33;;;;;;;10.05;2.13;;;;;;;;;;4995263;28;20033;-62
2023/03/22 18:54:00;;;;;;;11.45;1.63;;;;;;;;;;4996884;28;20045;-63
2023/03/22 18:56:26;;;;;;;7.57;1.45;;;;;;;;;;5002476;28;20715;-62
2023/03/22 18:58:53;;;;;;;5.43;1.70;;;;;;;;;;4996055;28;20077;-61
2023/03/22 19:01:20;;;;;;;6.95;1.60;;;;;;;;;;4996185;28;20052;-61
2023/03/22 19:03:46;;;;;;;12.50;1.90;;;;;;;;;;4995827;28;20038;-60
2023/03/22 19:06:14;;;;;;;9.82;1.58;;;;;;;;;;4994960;28;20041;-60
2023/03/22 19:08:44;;;;;;;6.78;1.63;;;;;;;;;;4995284;28;20052;-61
2023/03/22 19:11:11;;;;;;;10.00;1.90;;;;;;;;;;4993624;28;20052;-60
2023/03/22 19:13:38;;;;;;;3.35;1.15;;;;;;;;;;4994598;28;21057;-60
2023/03/22 19:16:06;;;;;;;5.57;1.50;;;;;;;;;;4993472;28;20064;-61
2023/03/22 19:18:33;;;;;;;5.85;1.30;;;;;;;;;;4994936;28;20029;-62
2023/03/22 19:21:00;;;;;;;17.02;1.90;;;;;;;;;;4995007;28;20165;-60
2023/03/22 19:23:27;;;;;;;6.70;1.70;;;;;;;;;;4994984;28;20487;-61
2023/03/22 19:25:54;;;;;;;9.98;1.65;;;;;;;;;;4994386;28;20428;-61
2023/03/22 19:28:21;;;;;;;4.85;1.52;;;;;;;;;;4994061;28;20863;-58
2023/03/22 19:30:52;;;;;;;9.02;1.33;;;;;;;;;;4995997;28;20884;-60
2023/03/22 19:33:18;;;;;;;7.47;1.77;;;;;;;;;;4995664;28;20050;-65
2023/03/22 19:35:46;;;;;;;8.05;1.70;;;;;;;;;;5002513;28;20042;-60
2023/03/22 19:38:14;;;;;;;9.55;1.60;;;;;;;;;;4994549;28;20046;-61
2023/03/22 19:40:41;;;;;;;7.40;1.70;;;;;;;;;;4994480;28;20042;-61
2023/03/22 19:43:10;;;;;;;5.28;1.65;;;;;;;;;;4995480;28;20034;-62
2023/03/22 19:45:40;;;;;;;7.35;1.60;;;;;;;;;;4993592;28;20406;-66
2023/03/22 19:48:07;;;;;;;8.70;1.75;;;;;;;;;;4994609;28;20045;-61
2023/03/22 19:50:35;;;;;;;11.88;1.63;;;;;;;;;;5001589;28;20057;-61
2023/03/22 19:53:02;;;;;;;10.02;1.60;;;;;;;;;;4995315;28;20161;-61
2023/03/22 19:55:29;;;;;;;10.73;2.42;;;;;;;;;;4994926;28;20046;-60
2023/03/22 19:57:59;;;;;;;14.13;3.03;;;;;;;;;;4995201;28;20577;-60
2023/03/22 20:00:27;;;;;;;16.83;3.42;;;;;;;;;;4993878;28;20446;-60
2023/03/22 20:02:54;;;;;;;10.00;2.70;;;;;;;;;;4993856;28;20125;-60
2023/03/22 20:05:21;;;;;;;12.77;4.15;;;;;;;;;;4994731;28;20037;-60
2023/03/22 20:07:49;;;;;;;23.73;5.63;;;;;;;;;;5001789;28;20889;-62
2023/03/22 20:10:16;;;;;;;19.08;5.10;;;;;;;;;;4994018;28;20080;-62
2023/03/22 20:12:43;;;;;;;12.85;4.43;;;;;;;;;;4994678;28;20128;-60
2023/03/22 20:15:09;;;;;;;16.42;4.45;;;;;;;;;;4993918;28;20442;-59
2023/03/22 20:17:39;;;;;;;15.05;3.88;;;;;;;;;;4991153;28;20042;-61
2023/03/22 20:20:07;;;;;;;13.85;4.28;;;;;;;;;;4993951;28;21085;-61
2023/03/22 20:22:34;;;;;;;17.48;5.28;;;;;;;;;;4993569;28;20088;-59
2023/03/22 20:25:01;;;;;;;17.90;4.57;;;;;;;;;;4994244;28;20046;-60
2023/03/22 20:27:28;;;;;;;12.18;3.47;;;;;;;;;;4993366;28;20422;-61
2023/03/22 20:29:56;;;;;;;21.20;4.43;;;;;;;;;;4994956;28;20069;-58
2023/03/22 20:32:23;;;;;;;14.57;4.38;;;;;;;;;;4993028;28;20207;-61
2023/03/22 20:34:50;;;;;;;10.77;4.15;;;;;;;;;;4993078;28;20129;-61
2023/03/22 20:37:20;;;;;;;14.77;4.32;;;;;;;;;;4993717;28;20045;-59
2023/03/22 20:39:47;;;;;;;11.20;3.75;;;;;;;;;;5013435;28;20050;-61
2023/03/22 20:42:15;;;;;;;15.77;3.58;;;;;;;;;;4999062;28;20156;-60
2023/03/22 20:44:41;;;;;;;12.77;3.40;;;;;;;;;;4994566;28;20038;-62
2023/03/22 20:47:08;;;;;;;18.38;3.50;;;;;;;;;;4993571;28;20046;-59
2023/03/22 20:49:35;;;;;;;19.77;3.47;;;;;;;;;;4993958;28;21603;-60
2023/03/22 20:52:02;;;;;;;14.73;3.42;;;;;;;;;;4998261;28;20528;-61
2023/03/22 20:54:28;;;;;;;11.38;3.13;;;;;;;;;;4994523;28;20050;-58
2023/03/22 20:56:55;;;;;;;14.80;3.17;;;;;;;;;;4994615;28;20470;-59
2023/03/22 20:59:22;;;;;;;10.63;3.58;;;;;;;;;;4993347;28;20050;-59
2023/03/22 21:01:49;;;;;;;12.95;3.20;;;;;;;;;;4997413;28;20045;-59
2023/03/22 21:04:16;;;;;;;12.00;2.90;;;;;;;;;;4996778;28;20136;-59
2023/03/22 21:06:42;;;;;;;20.25;3.70;;;;;;;;;;4997275;28;20042;-61
2023/03/22 21:09:09;;;;;;;11.50;2.83;;;;;;;;;;4998010;28;20057;-59
2023/03/22 21:11:36;;;;;;;12.77;3.20;;;;;;;;;;4997871;28;20771;-61
2023/03/22 21:14:03;;;;;;;14.48;3.53;;;;;;;;;;4997759;28;20046;-59
2023/03/22 21:16:29;;;;;;;9.50;3.17;;;;;;;;;;4996997;28;20467;-59
2023/03/22 21:18:56;;;;;;;11.25;2.10;;;;;;;;;;4998326;28;20411;-58
2023/03/22 21:21:23;;;;;;;5.95;2.13;;;;;;;;;;4997130;28;20030;-58
2023/03/22 21:23:49;;;;;;;10.18;1.92;;;;;;;;;;4997782;28;20054;-58
2023/03/22 21:26:16;;;;;;;6.90;1.77;;;;;;;;;;5005005;28;21762;-59
2023/03/22 21:28:43;;;;;;;6.25;1.63;;;;;;;;;;4997330;28;21821;-59
2023/03/22 21:31:11;;;;;;;7.45;2.03;;;;;;;;;;4997928;28;20447;-59
2023/03/22 21:33:37;;;;;;;5.13;1.80;;;;;;;;;;4997387;28;20046;-61
2023/03/22 21:36:05;;;;;;;9.13;2.60;;;;;;;;;;4996596;28;22392;-60
2023/03/22 21:38:36;;;;;;;8.68;2.08;;;;;;;;;;4997097;28;20592;-59
2023/03/22 21:41:04;;;;;;;11.48;2.30;;;;;;;;;;4997280;28;20104;-61
2023/03/22 21:43:31;;;;;;;6.43;1.90;;;;;;;;;;4996842;28;20791;-59
2023/03/22 21:45:59;;;;;;;8.13;1.48;;;;;;;;;;4997034;28;20050;-61
2023/03/22 21:48:27;;;;;;;7.10;1.65;;;;;;;;;;4996739;28;20058;-59
2023/03/22 21:50:54;;;;;;;6.97;1.90;;;;;;;;;;4998262;28;20502;-61
2023/03/22 21:53:22;;;;;;;7.85;2.28;;;;;;;;;;4997296;28;20050;-61
2023/03/22 21:55:49;;;;;;;6.63;2.03;;;;;;;;;;4996414;28;20402;-58
2023/03/22 21:58:16;;;;;;;6.88;1.75;;;;;;;;;;4996828;28;20058;-58
2023/03/22 22:00:43;;;;;;;7.60;2.38;;;;;;;;;;4995933;28;20042;-57
2023/03/22 22:03:09;;;;;;;9.05;2.70;;;;;;;;;;4997670;28;20211;-58
2023/03/22 22:05:37;;;;;;;8.40;2.58;;;;;;;;;;4995676;28;20380;-59
2023/03/22 22:08:04;;;;;;;6.97;2.80;;;;;;;;;;4996277;28;20129;-60
2023/03/22 22:10:31;;;;;;;8.77;2.60;;;;;;;;;;4994714;28;20045;-59
2023/03/22 22:12:58;;;;;;;10.98;3.03;;;;;;;;;;4994949;28;20037;-59
2023/03/22 22:15:26;;;;;;;6.32;2.05;;;;;;;;;;4995352;28;20038;-58
2023/03/22 22:17:53;;;;;;;9.45;2.47;;;;;;;;;;4996437;28;20486;-59
2023/03/22 22:20:23;;;;;;;6.03;2.08;;;;;;;;;;4997437;28;20053;-59
2023/03/22 22:22:49;;;;;;;4.97;1.75;;;;;;;;;;5003413;28;20037;-59
2023/03/22 22:25:17;;;;;;;5.55;2.10;;;;;;;;;;4996972;28;20046;-59
2023/03/22 22:27:45;;;;;;;6.28;2.20;;;;;;;;;;4996197;28;20077;-59
2023/03/22 22:30:13;;;;;;;7.45;2.13;;;;;;;;;;4996501;28;20049;-58
2023/03/22 22:32:41;;;;;;;6.95;2.13;;;;;;;;;;4995401;28;20042;-59
2023/03/22 22:35:09;;;;;;;6.97;2.22;;;;;;;;;;4996349;28;20413;-62
2023/03/22 22:37:36;;;;;;;6.13;2.20;;;;;;;;;;5016593;28;20190;-60
2023/03/22 22:40:09;;;;;;;9.27;2.13;;;;;;;;;;4995885;28;20046;-60
2023/03/22 22:42:36;;;;;;;;;;;;;;;;;;5004331;28;20069;-61
2023/03/22 22:45:02;;;;;;;5.70;2.70;;;;;;;;;;4997018;28;19917;-62
2023/03/22 22:47:29;;;;;;;7.25;3.00;;;;;;;;;;4994828;28;20037;-59
2023/03/22 22:49:56;;;;;;;9.13;2.67;;;;;;;;;;4995127;28;20097;-62
2023/03/22 22:52:22;;;;;;;10.20;2.83;;;;;;;;;;4995983;28;20042;-61
2023/03/22 22:54:49;;;;;;;8.43;2.50;;;;;;;;;;4995050;28;20030;-60
2023/03/22 22:57:15;;;;;;;6.97;2.80;;;;;;;;;;4992464;28;20083;-59
2023/03/22 22:59:42;;;;;;;7.63;2.92;;;;;;;;;;5002761;28;20042;-61
2023/03/22 23:02:09;;;;;;;10.68;3.17;;;;;;;;;;4992322;28;20046;-61
2023/03/22 23:04:35;;;;;;;7.05;3.03;;;;;;;;;;4994335;28;20698;-60
2023/03/22 23:07:02;;;;;;;6.82;3.05;;;;;;;;;;4995385;28;21401;-60
2023/03/22 23:09:30;;;;;;;7.20;2.58;;;;;;;;;;4995705;28;20050;-59
2023/03/22 23:11:57;;;;;;;6.47;3.28;;;;;;;;;;4995016;28;20034;-63
2023/03/22 23:14:29;;;;;;;12.73;3.80;;;;;;;;;;4995394;28;20041;-60
2023/03/22 23:16:57;;;;;;;6.20;2.80;;;;;;;;;;4995786;28;20044;-63
2023/03/22 23:19:25;;;;;;;8.25;3.25;;;;;;;;;;4995441;28;20046;-62
2023/03/22 23:21:59;;;;;;;12.35;4.00;;;;;;;;;;4994963;28;20099;-61
2023/03/22 23:24:30;;;;;;;10.35;3.88;;;;;;;;;;4993986;28;20049;-61
2023/03/22 23:26:59;;;;;;;10.70;4.32;;;;;;;;;;4995257;28;20045;-59
2023/03/22 23:29:26;;;;;;;11.20;4.22;;;;;;;;;;4995213;28;20061;-62
2023/03/22 23:31:53;;;;;;;11.38;4.07;;;;;;;;;;5001053;28;20041;-59
2023/03/22 23:34:21;;;;;;;12.18;3.65;;;;;;;;;;4998841;28;20103;-61
2023/03/22 23:36:50;;;;;;;7.18;3.85;;;;;;;;;;4994723;28;20461;-62
2023/03/22 23:39:18;;;;;;;9.05;3.90;;;;;;;;;;4995980;28;20061;-61
2023/03/22 23:41:45;;;;;;;11.05;3.97;;;;;;;;;;5003017;28;20487;-59
2023/03/22 23:44:12;;;;;;;10.95;3.72;;;;;;;;;;4994929;28;20084;-61
2023/03/22 23:46:39;;;;;;;7.18;3.45;;;;;;;;;;4993358;28;20108;-64
2023/03/22 23:49:06;;;;;;;9.82;3.55;;;;;;;;;;4995703;28;20055;-62
2023/03/22 23:51:33;;;;;;;7.53;3.63;;;;;;;;;;4994870;28;20057;-59
2023/03/22 23:54:01;;;;;;;9.50;3.90;;;;;;;;;;4995532;28;20042;-60
2023/03/22 23:56:29;;;;;;;10.32;3.80;;;;;;;;;;4992583;28;20576;-58
2023/03/22 23:58:56;;;;;;;7.57;3.72;;;;;;;;;;4994453;28;20145;-58
